Time;durP1;ratioP1;P1;durP2;ratioP2;P2;SDS_P1;SDS_P2;PMS_P1;PMS_P2;Temp;Humidity;BMP_temperature;BMP_pressure;BME280_temperature;BME280_humidity;BME280_pressure;Samples;Min_cycle;Max_cycle;Signal;HPM_P1;HPM_P2
2022/09/03 00:02:02;;;;;;;4.43;1.42;;;;;;;14.55;59.68;100999.94;6047426;28;20040;-65
2022/09/03 00:05:12;;;;;;;2.05;1.30;;;;;;;14.47;59.63;100987.44;6047409;28;20092;-64
2022/09/03 00:08:19;;;;;;;2.35;1.00;;;;;;;14.53;59.90;100985.94;6047631;28;20145;-66
2022/09/03 00:11:33;;;;;;;;;;;;;;;14.56;59.39;100988.28;6047585;28;20074;-63
2022/09/03 00:14:39;;;;;;;2.78;1.20;;;;;;;14.57;59.59;100988.09;6048948;28;19916;-64
2022/09/03 00:17:38;;;;;;;2.28;1.20;;;;;;;14.49;59.81;100989.94;6046561;28;20135;-65
2022/09/03 00:20:44;;;;;;;1.73;0.90;;;;;;;14.46;59.47;100995.63;6046226;28;20045;-62
2022/09/03 00:23:40;;;;;;;2.05;0.95;;;;;;;14.49;60.00;100990.78;6047062;28;20466;-63
2022/09/03 00:26:36;;;;;;;3.72;1.45;;;;;;;14.42;59.82;100984.44;6048352;28;20034;-64
2022/09/03 00:29:38;;;;;;;1.90;1.00;;;;;;;14.22;60.57;100959.00;6044032;28;20038;-64
2022/09/03 00:32:46;;;;;;;2.33;1.10;;;;;;;14.32;60.82;100977.56;6047669;28;20040;-64
2022/09/03 00:35:52;;;;;;;2.03;0.80;;;;;;;14.21;60.58;100971.50;6046188;28;20053;-64
2022/09/03 00:38:48;;;;;;;5.80;1.70;;;;;;;14.25;60.33;100983.53;6048197;28;20628;-65
2022/09/03 00:42:15;;;;;;;1.63;0.97;;;;;;;14.25;60.56;100974.69;6047609;28;20068;-63
2022/09/03 00:45:17;;;;;;;3.03;0.90;;;;;;;14.21;60.19;100976.03;6050138;28;20405;-65
2022/09/03 00:48:25;;;;;;;1.95;0.73;;;;;;;14.15;60.75;100966.84;6063485;28;20030;-64
2022/09/03 00:51:41;;;;;;;2.42;1.10;;;;;;;14.09;60.62;100961.31;6062410;28;20124;-63
2022/09/03 00:54:53;;;;;;;2.75;1.00;;;;;;;14.02;61.22;100958.44;6046343;28;20424;-65
2022/09/03 00:58:01;;;;;;;2.80;1.10;;;;;;;14.00;61.54;100972.94;6046757;28;20388;-65
2022/09/03 01:00:57;;;;;;;3.15;1.05;;;;;;;13.98;61.30;100958.94;6045316;28;20065;-65
2022/09/03 01:04:13;;;;;;;1.40;0.80;;;;;;;13.95;61.56;100973.44;6041900;28;20032;-66
2022/09/03 01:07:45;;;;;;;2.38;1.10;;;;;;;13.92;61.09;100979.09;6062743;28;20072;-66
2022/09/03 01:10:48;;;;;;;1.80;1.15;;;;;;;13.81;61.35;100966.03;6028457;28;20509;-64
2022/09/03 01:13:50;;;;;;;3.72;1.00;;;;;;;13.84;61.83;100968.38;6046533;28;20081;-65
2022/09/03 01:17:18;;;;;;;2.70;1.08;;;;;;;13.82;62.01;100973.06;6047667;28;20057;-62
2022/09/03 01:20:27;;;;;;;2.30;0.98;;;;;;;13.72;62.40;100977.69;6024436;28;20093;-66
2022/09/03 01:23:41;;;;;;;2.10;0.90;;;;;;;13.71;62.25;100974.19;6046186;28;20153;-66
2022/09/03 01:26:48;;;;;;;1.65;0.80;;;;;;;13.59;62.79;100958.59;6047076;28;20054;-67
2022/09/03 01:29:46;;;;;;;;;;;;;;;13.70;62.01;100975.16;6046900;28;20060;-64
2022/09/03 01:32:52;;;;;;;1.85;0.95;;;;;;;13.59;62.15;100958.59;6060704;28;19956;-64
2022/09/03 01:35:53;;;;;;;1.58;0.93;;;;;;;13.50;62.56;100972.91;6042277;28;20041;-63
2022/09/03 01:39:03;;;;;;;1.95;0.93;;;;;;;13.53;62.34;100969.94;6045629;28;20355;-65
2022/09/03 01:42:14;;;;;;;1.60;0.82;;;;;;;13.51;62.62;100977.22;6044485;28;20030;-64
2022/09/03 01:45:47;;;;;;;1.40;0.82;;;;;;;13.55;62.63;100978.59;6034709;28;20044;-65
2022/09/03 01:49:10;;;;;;;1.65;0.80;;;;;;;13.28;63.04;100968.09;6037805;28;20129;-66
2022/09/03 01:52:12;;;;;;;1.55;0.95;;;;;;;13.29;63.44;100969.78;6046378;28;20030;-64
2022/09/03 01:55:31;;;;;;;2.15;0.90;;;;;;;13.37;63.21;100985.81;6037158;28;20116;-65
2022/09/03 01:58:32;;;;;;;3.28;1.08;;;;;;;13.31;62.88;100973.13;6061933;28;20030;-64
2022/09/03 02:01:32;;;;;;;1.90;0.93;;;;;;;13.39;62.79;100979.34;6061164;28;20382;-65
2022/09/03 02:04:28;;;;;;;1.10;0.60;;;;;;;13.35;63.11;100977.13;6045977;28;20493;-65
2022/09/03 02:07:25;;;;;;;1.10;0.70;;;;;;;13.36;62.74;100973.47;6046163;28;20049;-63
2022/09/03 02:10:43;;;;;;;2.75;0.90;;;;;;;13.48;62.61;100988.22;6059251;28;20632;-64
2022/09/03 02:13:40;;;;;;;1.75;0.88;;;;;;;13.40;62.53;100969.53;6044093;28;20038;-65
2022/09/03 02:16:36;;;;;;;2.67;0.93;;;;;;;13.40;62.99;100969.53;6044974;28;20052;-64
2022/09/03 02:19:33;;;;;;;1.33;0.80;;;;;;;13.41;63.10;100979.16;6046014;28;20029;-64
2022/09/03 02:22:28;;;;;;;1.83;0.80;;;;;;;13.31;62.61;100973.97;6043044;28;20496;-65
2022/09/03 02:25:29;;;;;;;1.70;0.93;;;;;;;13.33;63.14;100981.78;6045578;28;20049;-63
2022/09/03 02:28:26;;;;;;;1.90;0.80;;;;;;;13.29;63.26;100972.44;6044719;28;20508;-64
2022/09/03 02:31:21;;;;;;;2.70;1.00;;;;;;;13.24;63.33;100974.72;6044925;28;20034;-62
2022/09/03 02:34:17;;;;;;;2.50;0.80;;;;;;;13.25;63.15;100979.91;6045881;28;20089;-64
2022/09/03 02:37:17;;;;;;;3.03;0.93;;;;;;;13.16;63.53;100972.00;6039101;28;20038;-65
2022/09/03 02:40:13;;;;;;;3.40;0.80;;;;;;;13.21;63.33;100969.75;6044665;28;20073;-62
2022/09/03 02:43:16;;;;;;;1.40;0.87;;;;;;;13.06;63.64;100945.47;6045163;28;20386;-64
2022/09/03 02:46:36;;;;;;;1.48;0.80;;;;;;;13.17;63.44;100963.03;6049502;28;20041;-64
2022/09/03 02:49:32;;;;;;;2.83;1.00;;;;;;;13.16;63.95;100977.34;6049915;28;20460;-63
2022/09/03 02:52:27;;;;;;;1.83;0.65;;;;;;;13.07;63.72;100965.81;6046485;28;20037;-65
2022/09/03 02:55:22;;;;;;;2.70;1.00;;;;;;;13.05;63.72;100965.09;6045163;28;20057;-62
2022/09/03 02:58:18;;;;;;;3.43;1.07;;;;;;;13.08;64.19;100983.44;6047919;28;20034;-65
2022/09/03 03:01:13;;;;;;;1.07;0.70;;;;;;;13.01;64.23;100985.03;6049398;28;20093;-66
2022/09/03 03:04:08;;;;;;;1.93;0.83;;;;;;;12.94;64.03;100968.84;6046725;28;20057;-64
2022/09/03 03:07:05;;;;;;;1.37;0.80;;;;;;;12.94;64.06;100968.84;6049166;28;20370;-63
2022/09/03 03:10:00;;;;;;;1.60;0.80;;;;;;;12.96;64.03;100982.00;6049998;28;20030;-68
2022/09/03 03:12:55;;;;;;;1.50;0.80;;;;;;;12.81;64.18;100972.88;6049318;28;20040;-63
2022/09/03 03:15:51;;;;;;;1.60;0.90;;;;;;;12.79;64.51;100965.06;6039969;28;20347;-65
2022/09/03 03:18:46;;;;;;;1.20;0.80;;;;;;;12.73;64.33;100971.00;6026255;28;20064;-63
2022/09/03 03:21:41;;;;;;;1.83;0.80;;;;;;;12.76;64.85;100981.34;6043759;28;20026;-62
2022/09/03 03:24:37;;;;;;;4.13;0.73;;;;;;;12.69;64.98;100971.47;6048873;28;20331;-63
2022/09/03 03:27:32;;;;;;;1.63;0.70;;;;;;;12.73;64.58;100964.84;6044931;28;20049;-62
2022/09/03 03:30:28;;;;;;;1.20;0.70;;;;;;;12.72;64.45;100979.97;6046123;28;20045;-64
2022/09/03 03:33:23;;;;;;;3.93;1.10;;;;;;;12.65;64.88;100970.94;6042835;28;20417;-64
2022/09/03 03:36:19;;;;;;;2.20;0.77;;;;;;;12.61;64.48;100966.06;6047527;28;20445;-62
2022/09/03 03:39:14;;;;;;;3.10;0.90;;;;;;;12.68;64.93;100977.78;6049213;28;20046;-63
2022/09/03 03:42:10;;;;;;;1.57;0.97;;;;;;;12.56;64.99;100974.50;6047640;28;20480;-64
2022/09/03 03:45:05;;;;;;;2.47;0.80;;;;;;;12.48;65.02;100972.59;6036376;28;20389;-64
2022/09/03 03:48:01;;;;;;;0.95;0.60;;;;;;;12.48;65.38;100979.75;6035896;28;20038;-65
2022/09/03 03:51:00;;;;;;;3.95;1.13;;;;;;;12.45;65.01;100969.41;6048648;28;20068;-64
2022/09/03 03:53:56;;;;;;;1.23;0.80;;;;;;;12.31;65.46;100972.59;6047992;28;20045;-64
2022/09/03 03:56:51;;;;;;;1.35;0.80;;;;;;;12.25;65.99;100975.88;6047456;28;20025;-65
2022/09/03 03:59:47;;;;;;;1.20;0.70;;;;;;;12.29;65.71;100983.38;6048894;28;20091;-64
2022/09/03 04:02:42;;;;;;;1.50;0.70;;;;;;;12.19;66.35;100979.97;6048148;28;20061;-66
2022/09/03 04:05:37;;;;;;;1.27;0.67;;;;;;;12.15;66.27;100981.22;6049037;28;20038;-65
2022/09/03 04:08:35;;;;;;;1.50;0.70;;;;;;;12.02;66.72;100970.13;6048867;28;20038;-65
2022/09/03 04:11:30;;;;;;;3.08;0.90;;;;;;;12.09;66.71;100975.69;6043430;28;20453;-64
2022/09/03 04:14:26;;;;;;;1.92;0.80;;;;;;;12.02;66.70;100970.13;6048887;28;20034;-64
2022/09/03 04:17:21;;;;;;;2.85;1.25;;;;;;;12.03;66.89;100981.59;6048351;28;20025;-65
2022/09/03 04:20:16;;;;;;;2.63;0.80;;;;;;;12.10;66.83;100972.88;6043827;28;20484;-65
2022/09/03 04:23:12;;;;;;;2.83;1.10;;;;;;;11.90;68.00;100974.78;6041968;28;20029;-65
2022/09/03 04:26:09;;;;;;;1.57;0.77;;;;;;;11.79;68.08;100959.06;6043760;28;20107;-64
2022/09/03 04:29:06;;;;;;;2.00;0.77;;;;;;;11.78;67.95;100957.41;6043415;28;20389;-65
2022/09/03 04:35:15;;;;;;;2.97;1.05;;;;;;;11.71;68.65;100960.78;6048127;28;20124;-64
2022/09/03 04:38:10;;;;;;;2.77;0.90;;;;;;;11.63;68.48;100956.16;6047285;28;20037;-65
2022/09/03 04:41:08;;;;;;;1.90;0.77;;;;;;;11.69;68.46;100962.72;6043504;28;20026;-62
2022/09/03 04:44:03;;;;;;;2.22;0.98;;;;;;;11.63;68.70;100964.13;6048003;28;20747;-63
2022/09/03 04:46:58;;;;;;;1.33;0.83;;;;;;;11.64;69.01;100960.50;6047808;28;20096;-64
2022/09/03 04:49:54;;;;;;;1.40;0.73;;;;;;;11.75;68.60;100973.63;6047830;28;20034;-64
2022/09/03 04:52:49;;;;;;;1.98;0.90;;;;;;;11.61;68.81;100966.09;6046939;28;20358;-62
2022/09/03 04:55:44;;;;;;;2.80;1.00;;;;;;;11.63;68.96;100956.16;6047887;28;20048;-64
2022/09/03 04:58:42;;;;;;;1.27;0.83;;;;;;;11.81;68.38;100980.16;6034505;28;20034;-62
2022/09/03 05:01:39;;;;;;;1.88;0.80;;;;;;;11.67;68.80;100970.84;6047359;28;20038;-66
2022/09/03 05:04:34;;;;;;;1.70;0.90;;;;;;;11.77;68.71;100961.03;6047625;28;20065;-64
2022/09/03 05:07:37;;;;;;;2.03;1.02;;;;;;;11.80;68.14;100955.41;6047074;28;20029;-65
2022/09/03 05:10:32;;;;;;;2.88;0.80;;;;;;;11.82;68.39;100972.03;6046871;28;20101;-64
2022/09/03 05:13:28;;;;;;;1.20;0.80;;;;;;;11.80;68.76;100974.00;6037992;28;20114;-65
2022/09/03 05:16:24;;;;;;;2.77;0.90;;;;;;;11.70;69.40;100961.75;6034869;28;20038;-63
2022/09/03 05:19:20;;;;;;;2.40;1.00;;;;;;;11.67;69.34;100978.81;6045381;28;20029;-65
2022/09/03 05:22:20;;;;;;;1.17;0.70;;;;;;;11.72;69.20;100979.22;6046196;28;20104;-64
2022/09/03 05:25:15;;;;;;;3.08;1.02;;;;;;;11.58;69.81;100961.06;6047445;28;20079;-65
2022/09/03 05:28:11;;;;;;;2.73;1.20;;;;;;;11.74;69.13;100965.81;6046145;28;20041;-65
2022/09/03 05:31:08;;;;;;;2.20;1.00;;;;;;;11.83;69.08;100978.19;6046524;28;20029;-63
2022/09/03 05:34:04;;;;;;;3.78;0.90;;;;;;;12.09;67.90;100975.69;6046924;28;20052;-64
2022/09/03 05:36:59;;;;;;;1.73;0.95;;;;;;;12.12;67.94;100978.88;6045872;28;20026;-62
2022/09/03 05:39:55;;;;;;;5.03;1.07;;;;;;;12.08;67.56;100966.03;6044230;28;20042;-63
2022/09/03 05:42:56;;;;;;;2.40;0.93;;;;;;;11.87;68.32;100961.84;6044903;28;20888;-63
2022/09/03 05:45:56;;;;;;;1.58;0.75;;;;;;;12.16;67.91;100972.28;6040135;28;20272;-64
2022/09/03 05:48:51;;;;;;;4.75;1.02;;;;;;;12.28;67.33;100957.78;6046709;28;20069;-65
2022/09/03 05:51:46;;;;;;;2.75;0.93;;;;;;;12.41;66.70;100954.75;6046320;28;20036;-65
2022/09/03 05:54:42;;;;;;;1.40;0.80;;;;;;;12.53;66.94;100965.00;6043888;28;20037;-65
2022/09/03 05:57:37;;;;;;;2.67;1.00;;;;;;;12.65;65.53;100968.28;6035243;28;20030;-63
2022/09/03 06:00:33;;;;;;;2.33;0.90;;;;;;;12.67;66.17;100971.59;6039793;28;20473;-64
2022/09/03 06:03:28;;;;;;;1.70;1.00;;;;;;;13.11;65.18;100960.00;6046154;28;20083;-64
2022/09/03 06:06:24;;;;;;;1.33;0.80;;;;;;;13.79;62.94;100960.03;6046486;28;20108;-63
2022/09/03 06:09:20;;;;;;;1.40;0.90;;;;;;;14.02;62.10;100968.28;6039164;28;20033;-63
2022/09/03 06:12:16;;;;;;;3.42;1.00;;;;;;;14.32;61.10;100960.56;6033087;28;20095;-64
2022/09/03 06:15:11;;;;;;;1.77;0.90;;;;;;;14.60;60.50;100960.25;6033789;28;20462;-64
2022/09/03 06:18:06;;;;;;;2.97;0.90;;;;;;;15.23;58.82;100973.75;6043694;28;20613;-62
2022/09/03 06:21:04;;;;;;;3.00;1.00;;;;;;;15.77;56.49;100959.59;6034351;28;20358;-65
2022/09/03 06:24:00;;;;;;;2.50;0.98;;;;;;;15.30;58.19;100974.75;6045003;28;20117;-62
2022/09/03 06:26:55;;;;;;;2.55;1.00;;;;;;;15.37;58.95;100971.22;6045685;28;20440;-65
2022/09/03 06:29:51;;;;;;;2.75;0.90;;;;;;;15.74;56.62;100967.13;6040674;28;20034;-64
2022/09/03 06:32:46;;;;;;;2.63;1.53;;;;;;;16.24;55.51;100972.06;6043091;28;20161;-65
2022/09/03 06:35:42;;;;;;;3.03;1.00;;;;;;;16.24;55.69;100975.56;6045749;28;20067;-64
2022/09/03 06:38:39;;;;;;;3.38;0.90;;;;;;;16.16;55.49;100961.41;6045379;28;20038;-65
2022/09/03 06:41:34;;;;;;;1.65;0.93;;;;;;;16.36;55.31;100957.28;6044810;28;20057;-63
2022/09/03 06:44:30;;;;;;;1.97;0.80;;;;;;;16.48;55.05;100961.19;6037710;28;20474;-65
2022/09/03 06:47:25;;;;;;;4.13;0.80;;;;;;;16.15;55.48;100976.63;6045498;28;20037;-65
2022/09/03 06:50:21;;;;;;;3.13;1.00;;;;;;;16.05;55.96;100968.00;6044633;28;20040;-65
2022/09/03 06:53:16;;;;;;;4.20;0.98;;;;;;;16.15;56.04;100962.41;6036164;28;20033;-63
2022/09/03 06:56:13;;;;;;;2.87;1.20;;;;;;;16.73;54.45;100969.91;6044908;28;20045;-64
2022/09/03 06:59:13;;;;;;;1.52;0.90;;;;;;;16.51;54.56;100964.38;6045615;28;20038;-64
2022/09/03 07:02:09;;;;;;;2.33;0.82;;;;;;;16.64;54.04;100967.31;6043378;28;20370;-63
2022/09/03 07:05:05;;;;;;;2.83;1.05;;;;;;;16.81;54.17;100972.53;6043812;28;20087;-66
2022/09/03 07:08:00;;;;;;;4.28;1.05;;;;;;;16.84;53.63;100958.78;6035557;28;20470;-64
2022/09/03 07:10:55;;;;;;;2.23;1.00;;;;;;;16.99;53.60;100954.28;6050832;28;20400;-65
2022/09/03 07:13:52;;;;;;;2.80;1.20;;;;;;;17.11;52.83;100950.16;6039925;28;20492;-64
2022/09/03 07:16:49;;;;;;;5.18;1.08;;;;;;;17.50;52.55;100969.50;6029916;28;20064;-64
2022/09/03 07:19:44;;;;;;;2.05;1.00;;;;;;;17.73;51.23;100954.19;6024367;28;20113;-64
2022/09/03 07:22:39;;;;;;;2.53;1.00;;;;;;;17.64;51.62;100955.28;6042285;28;20036;-63
2022/09/03 07:25:34;;;;;;;2.13;1.00;;;;;;;17.51;52.04;100960.44;6031033;28;20030;-65
2022/09/03 07:28:33;;;;;;;2.83;0.93;;;;;;;17.85;51.76;100952.69;6038837;28;20026;-64
2022/09/03 07:31:33;;;;;;;4.82;1.08;;;;;;;17.91;51.72;100969.06;6031779;28;20163;-63
2022/09/03 07:34:29;;;;;;;4.40;1.05;;;;;;;17.98;51.06;100957.41;6039583;28;20030;-65
2022/09/03 07:37:24;;;;;;;5.35;1.13;;;;;;;17.94;50.57;100966.03;6039188;28;20556;-66
2022/09/03 07:40:19;;;;;;;3.77;0.90;;;;;;;18.09;50.81;100961.44;6054473;28;20048;-64
2022/09/03 07:43:15;;;;;;;4.40;1.10;;;;;;;18.27;50.18;100951.09;6049171;28;20037;-65
2022/09/03 07:46:11;;;;;;;1.85;1.02;;;;;;;18.37;50.11;100952.47;6048865;28;20489;-63
2022/09/03 07:49:07;;;;;;;2.53;1.20;;;;;;;18.53;49.82;100943.38;6048435;28;20041;-62
2022/09/03 07:52:02;;;;;;;2.28;1.10;;;;;;;18.64;49.46;100944.72;6038911;28;20030;-62
2022/09/03 07:54:58;;;;;;;5.33;1.13;;;;;;;18.83;49.69;100950.25;6042285;28;20044;-64
2022/09/03 07:57:58;;;;;;;4.60;1.20;;;;;;;18.79;49.16;100951.66;6047942;28;20125;-65
2022/09/03 08:00:55;;;;;;;;;;;;;;;18.97;48.74;100954.69;6045663;28;20512;-65
2022/09/03 08:03:54;;;;;;;2.55;1.00;;;;;;;18.99;48.16;100933.84;6036048;28;19918;-65
2022/09/03 08:06:54;;;;;;;4.53;1.30;;;;;;;19.01;47.76;100945.25;6034684;28;20420;-65
2022/09/03 08:09:49;;;;;;;5.93;1.20;;;;;;;19.30;47.40;100949.56;6057678;28;20536;-65
2022/09/03 08:12:45;;;;;;;3.25;1.02;;;;;;;19.32;46.93;100954.78;6046431;28;20034;-63
2022/09/03 08:15:41;;;;;;;2.00;1.00;;;;;;;19.71;46.05;100949.63;6059045;28;20041;-64
2022/09/03 08:18:37;;;;;;;1.80;0.98;;;;;;;19.57;46.89;100947.91;6056923;28;20060;-64
2022/09/03 08:21:33;;;;;;;3.70;1.30;;;;;;;19.73;46.52;100954.84;6051750;28;20041;-64
2022/09/03 08:24:28;;;;;;;2.33;1.15;;;;;;;19.97;45.69;100957.84;6044861;28;20051;-63
2022/09/03 08:27:24;;;;;;;1.87;1.10;;;;;;;19.89;46.18;100965.25;6043628;28;20059;-64
2022/09/03 08:30:20;;;;;;;2.40;1.00;;;;;;;20.06;45.26;100961.16;6046636;28;20030;-66
2022/09/03 08:33:15;;;;;;;2.53;1.10;;;;;;;20.22;44.32;100960.00;6047713;28;20037;-64
2022/09/03 08:36:16;;;;;;;3.07;1.20;;;;;;;20.43;43.96;100954.50;6047719;28;20034;-65
2022/09/03 08:39:12;;;;;;;4.45;1.17;;;;;;;20.51;43.14;100957.00;6032615;28;20097;-64
2022/09/03 08:42:32;;;;;;;3.55;1.00;;;;;;;20.65;42.61;100959.50;6042997;28;20060;-63
2022/09/03 08:45:29;;;;;;;4.65;1.20;;;;;;;20.71;41.70;100955.13;6046708;28;20481;-66
2022/09/03 08:48:25;;;;;;;5.32;1.10;;;;;;;20.72;42.58;100952.25;6062466;28;20485;-64
2022/09/03 08:51:22;;;;;;;2.83;1.23;;;;;;;20.80;42.03;100959.31;6044995;28;20113;-65
2022/09/03 08:54:20;;;;;;;4.95;1.17;;;;;;;20.73;42.37;100948.53;6044620;28;20084;-66
2022/09/03 08:57:18;;;;;;;3.47;0.95;;;;;;;20.86;42.11;100953.09;6032669;28;20041;-63
2022/09/03 09:00:14;;;;;;;5.63;1.08;;;;;;;21.23;40.74;100944.38;6045408;28;20044;-63
2022/09/03 09:03:32;;;;;;;2.35;0.90;;;;;;;21.04;41.13;100939.81;6033955;28;20049;-64
2022/09/03 09:06:40;;;;;;;2.75;1.13;;;;;;;21.53;40.29;100954.69;6024818;28;20038;-64
2022/09/03 09:09:57;;;;;;;4.20;2.13;;;;;;;21.63;40.06;100942.44;6035043;28;20045;-64
2022/09/03 09:13:00;;;;;;;4.68;0.88;;;;;;;21.73;38.73;100944.69;6045477;28;20539;-64
2022/09/03 09:16:18;;;;;;;1.58;0.98;;;;;;;21.56;37.99;100943.47;6046726;28;20049;-66
2022/09/03 09:19:27;;;;;;;6.82;1.25;;;;;;;21.64;37.17;100937.84;6059347;28;20053;-65
2022/09/03 09:22:38;;;;;;;7.53;1.25;;;;;;;21.41;35.86;100921.31;6046106;28;20030;-62
2022/09/03 09:25:41;;;;;;;2.60;1.00;;;;;;;21.74;36.88;100944.44;6045391;28;20057;-63
2022/09/03 09:28:37;;;;;;;9.05;1.13;;;;;;;21.92;34.76;100928.44;6033934;28;20038;-63
2022/09/03 09:31:34;;;;;;;6.53;1.42;;;;;;;21.60;34.12;100926.66;6045816;28;20110;-63
2022/09/03 09:34:37;;;;;;;2.35;1.08;;;;;;;21.50;34.28;100922.75;6045748;28;20037;-64
2022/09/03 09:37:34;;;;;;;4.65;1.00;;;;;;;21.47;34.59;100932.06;6045074;28;20046;-66
2022/09/03 09:40:37;;;;;;;3.55;1.00;;;;;;;21.64;34.83;100929.75;6038312;28;20066;-66
2022/09/03 09:43:32;;;;;;;3.75;1.00;;;;;;;21.75;33.46;100913.72;6035235;28;20034;-64
2022/09/03 09:46:35;;;;;;;1.50;0.87;;;;;;;21.95;33.26;100927.19;6038420;28;20061;-67
2022/09/03 09:49:34;;;;;;;1.98;1.00;;;;;;;21.91;33.54;100931.34;6046026;28;20029;-65
2022/09/03 09:52:30;;;;;;;4.10;1.08;;;;;;;21.88;33.47;100920.97;6044982;28;20032;-65
2022/09/03 09:55:27;;;;;;;6.13;1.10;;;;;;;22.16;33.17;100920.63;6043196;28;20034;-64
2022/09/03 09:58:25;;;;;;;4.38;1.02;;;;;;;22.42;32.45;100921.28;6041437;28;20025;-65
2022/09/03 10:01:22;;;;;;;3.65;1.30;;;;;;;22.15;32.67;100922.47;6044658;28;20026;-67
2022/09/03 10:04:28;;;;;;;3.92;1.17;;;;;;;21.55;33.50;100915.66;6045558;28;20091;-65
2022/09/03 10:07:33;;;;;;;4.97;1.35;;;;;;;21.35;34.44;100920.28;6042370;28;20045;-65
2022/09/03 10:10:31;;;;;;;3.58;1.00;;;;;;;21.91;33.43;100913.25;6028770;28;20128;-64
2022/09/03 10:13:39;;;;;;;7.22;1.67;;;;;;;21.91;33.01;100928.63;6041464;28;20029;-64
2022/09/03 10:16:39;;;;;;;5.25;1.13;;;;;;;22.13;32.97;100911.06;6058032;28;20025;-65
2022/09/03 10:19:43;;;;;;;4.03;1.17;;;;;;;22.19;33.10;100907.50;6044023;28;20037;-63
2022/09/03 10:22:45;;;;;;;5.65;1.10;;;;;;;22.33;33.27;100914.50;6042620;28;20033;-64
2022/09/03 10:25:56;;;;;;;2.15;1.00;;;;;;;22.44;32.62;100911.09;6037509;28;20037;-64
2022/09/03 10:28:51;;;;;;;3.85;0.98;;;;;;;22.37;33.20;100918.41;6045121;28;20536;-64
2022/09/03 10:31:56;;;;;;;1.77;0.90;;;;;;;22.41;32.77;100898.00;6058815;28;20025;-65
2022/09/03 10:35:11;;;;;;;4.18;0.90;;;;;;;22.11;33.15;100917.75;6041114;28;20489;-65
2022/09/03 10:38:16;;;;;;;3.17;0.93;;;;;;;21.77;33.07;100898.13;6031575;28;20030;-65
2022/09/03 10:41:20;;;;;;;1.52;0.90;;;;;;;22.28;33.15;100900.81;6039855;28;20045;-63
2022/09/03 10:44:21;;;;;;;1.15;0.80;;;;;;;22.20;33.13;100898.38;6045462;28;20041;-65
2022/09/03 10:47:51;;;;;;;1.63;0.88;;;;;;;23.00;32.22;100899.41;6044415;28;20055;-66
2022/09/03 10:51:10;;;;;;;4.35;1.00;;;;;;;22.85;31.87;100880.84;6044377;28;20107;-66
2022/09/03 10:54:36;;;;;;;4.57;0.93;;;;;;;22.42;32.80;100896.94;6030722;28;20038;-64
2022/09/03 10:57:53;;;;;;;3.35;0.82;;;;;;;22.90;32.80;100904.50;6048284;28;20385;-66
2022/09/03 11:00:53;;;;;;;2.88;0.70;;;;;;;23.15;32.10;100878.25;6038165;28;20462;-65
2022/09/03 11:04:02;;;;;;;2.05;0.98;;;;;;;22.86;32.02;100887.06;6043830;28;20038;-63
2022/09/03 11:07:06;;;;;;;4.38;1.27;;;;;;;22.68;32.34;100868.94;6049743;28;20385;-64
2022/09/03 11:10:26;;;;;;;2.53;0.98;;;;;;;22.86;31.87;100882.47;6048108;28;20030;-65
2022/09/03 11:13:34;;;;;;;1.45;0.85;;;;;;;22.84;32.15;100862.13;6049585;28;20021;-64
2022/09/03 11:16:32;;;;;;;1.48;0.80;;;;;;;22.94;31.83;100865.13;6049145;28;20587;-67
2022/09/03 11:19:37;;;;;;;1.40;0.80;;;;;;;22.78;32.20;100868.41;6047928;28;20485;-63
2022/09/03 11:22:32;;;;;;;2.63;1.15;;;;;;;22.68;32.41;100855.41;6063725;28;20030;-63
2022/09/03 11:25:33;;;;;;;2.55;1.00;;;;;;;23.29;31.88;100866.22;6048800;28;20088;-65
2022/09/03 11:28:50;;;;;;;1.83;1.02;;;;;;;23.35;31.63;100859.91;6047781;28;20108;-66
2022/09/03 11:32:01;;;;;;;1.10;0.77;;;;;;;22.87;32.46;100867.09;6045699;28;20076;-63
2022/09/03 11:34:56;;;;;;;3.78;1.20;;;;;;;23.01;32.24;100861.34;6042372;28;20034;-65
2022/09/03 11:38:02;;;;;;;4.22;1.00;;;;;;;22.94;32.05;100857.03;6048768;28;20033;-65
2022/09/03 11:41:21;;;;;;;3.67;0.90;;;;;;;23.17;31.80;100862.63;6048056;28;20057;-64
2022/09/03 11:44:18;;;;;;;2.58;0.98;;;;;;;23.14;31.49;100860.38;6064226;28;20133;-64
2022/09/03 11:47:23;;;;;;;2.60;0.90;;;;;;;23.35;31.57;100872.63;6057524;28;20038;-64
2022/09/03 11:50:32;;;;;;;2.00;0.80;;;;;;;23.14;31.94;100844.13;6032492;28;20044;-64
2022/09/03 11:53:34;;;;;;;3.28;0.90;;;;;;;23.64;30.91;100864.56;6048740;28;20030;-65
2022/09/03 11:56:31;;;;;;;3.22;1.30;;;;;;;23.29;31.80;100862.72;6047531;28;20133;-64
2022/09/03 11:59:27;;;;;;;2.25;1.05;;;;;;;23.07;31.83;100844.19;6047084;28;20755;-65
2022/09/03 12:02:30;;;;;;;1.37;0.80;;;;;;;23.33;31.64;100834.97;6046340;28;20041;-66
2022/09/03 12:05:50;;;;;;;3.63;1.10;;;;;;;23.75;31.43;100835.91;6048458;28;20038;-65
2022/09/03 12:08:54;;;;;;;2.13;0.93;;;;;;;23.55;31.55;100855.13;6044443;28;20540;-65
2022/09/03 12:11:59;;;;;;;1.92;0.93;;;;;;;23.53;31.26;100838.28;6047889;28;20088;-66
2022/09/03 12:15:14;;;;;;;6.47;1.00;;;;;;;23.42;31.30;100843.63;6063658;28;20087;-65
2022/09/03 12:18:18;;;;;;;2.42;1.13;;;;;;;23.27;31.56;100848.56;6047536;28;20030;-66
2022/09/03 12:21:16;;;;;;;4.70;0.93;;;;;;;22.86;31.99;100841.06;6046277;28;20108;-66
2022/09/03 12:24:12;;;;;;;1.55;0.95;;;;;;;23.60;31.95;100855.28;6039307;28;20351;-65
2022/09/03 12:27:10;;;;;;;3.17;1.17;;;;;;;24.01;30.49;100840.13;6045548;28;20068;-64
2022/09/03 12:30:14;;;;;;;2.72;0.90;;;;;;;23.47;31.15;100835.66;6026059;28;20038;-64
2022/09/03 12:33:16;;;;;;;2.63;0.82;;;;;;;23.63;31.16;100837.75;6023685;28;20030;-65
2022/09/03 12:36:12;;;;;;;4.22;1.00;;;;;;;23.76;31.03;100834.00;6062219;28;20045;-64
2022/09/03 12:39:14;;;;;;;3.38;1.00;;;;;;;23.49;31.30;100834.38;6047411;28;20030;-66
2022/09/03 12:42:18;;;;;;;2.95;1.10;;;;;;;23.86;30.76;100834.31;6040452;28;20065;-64
2022/09/03 12:45:14;;;;;;;5.13;0.80;;;;;;;23.81;30.63;100831.47;6062464;28;20037;-67
2022/09/03 12:48:14;;;;;;;1.95;0.88;;;;;;;23.47;30.92;100822.13;6047076;28;20033;-62
2022/09/03 12:51:10;;;;;;;4.05;1.10;;;;;;;23.96;30.47;100821.03;6046158;28;20041;-65
2022/09/03 12:54:08;;;;;;;1.85;0.80;;;;;;;23.92;30.47;100827.94;6046791;28;20437;-65
2022/09/03 12:57:04;;;;;;;2.28;0.80;;;;;;;24.19;30.22;100807.56;6059160;28;20045;-65
2022/09/03 13:00:05;;;;;;;1.10;0.75;;;;;;;24.09;30.32;100796.47;6047425;28;20057;-66
2022/09/03 13:03:06;;;;;;;4.40;1.20;;;;;;;23.89;30.49;100798.63;6047333;28;20491;-66
2022/09/03 13:06:07;;;;;;;1.52;0.90;;;;;;;23.72;30.53;100801.16;6046699;28;20026;-67
2022/09/03 13:09:05;;;;;;;2.13;1.02;;;;;;;24.07;30.40;100772.28;6061705;28;20359;-66
2022/09/03 13:12:04;;;;;;;2.30;0.90;;;;;;;23.98;30.39;100808.06;6046210;28;20029;-66
2022/09/03 13:15:06;;;;;;;1.90;0.90;;;;;;;23.89;30.49;100791.31;6039932;28;20041;-64
2022/09/03 13:18:29;;;;;;;1.05;0.80;;;;;;;23.82;30.45;100781.63;6023003;28;20041;-66
2022/09/03 13:21:40;;;;;;;2.70;1.10;;;;;;;23.77;30.58;100781.50;6036312;28;20026;-63
2022/09/03 13:24:51;;;;;;;2.13;0.90;;;;;;;23.79;30.44;100774.81;6040685;28;20073;-65
2022/09/03 13:27:52;;;;;;;3.20;1.00;;;;;;;23.83;30.68;100796.84;6037991;28;20035;-65
2022/09/03 13:31:00;;;;;;;1.33;0.90;;;;;;;24.21;30.16;100790.03;6040103;28;20025;-64
2022/09/03 13:34:19;;;;;;;1.45;0.93;;;;;;;24.45;29.53;100787.34;6061303;28;20037;-64
2022/09/03 13:37:26;;;;;;;2.60;1.10;;;;;;;24.28;30.08;100787.19;6033094;28;20091;-66
2022/09/03 13:40:27;;;;;;;1.58;0.63;;;;;;;24.04;29.98;100793.59;6044258;28;20572;-66
2022/09/03 13:43:44;;;;;;;2.22;1.00;;;;;;;24.32;29.67;100782.97;6061469;28;20037;-67
2022/09/03 13:46:52;;;;;;;3.75;1.10;;;;;;;24.13;29.48;100794.97;6044230;28;20033;-63
2022/09/03 13:53:37;;;;;;;2.22;0.95;;;;;;;24.59;29.48;100775.19;6059369;28;20101;-63
2022/09/03 13:56:53;;;;;;;1.77;1.00;;;;;;;24.36;29.89;100791.44;6045948;28;20034;-65
2022/09/03 13:59:52;;;;;;;3.63;0.90;;;;;;;24.60;29.45;100783.09;6061677;28;20034;-65
2022/09/03 14:02:56;;;;;;;2.40;1.30;;;;;;;24.24;29.47;100794.97;6044220;28;20085;-65
2022/09/03 14:06:01;;;;;;;1.65;1.10;;;;;;;24.17;29.56;100788.00;6059959;28;20481;-63
2022/09/03 14:09:05;;;;;;;2.75;0.90;;;;;;;24.36;29.23;100789.56;6046082;28;20115;-64
2022/09/03 14:12:02;;;;;;;2.03;1.00;;;;;;;24.39;29.50;100788.25;6045790;28;20054;-65